createdAt,value
2022-10-26T00:02:28.467Z,14.40
2022-10-26T00:08:23.113Z,14.40
2022-10-26T00:14:16.330Z,14.40
2022-10-26T00:20:10.533Z,14.30
2022-10-26T00:26:05.554Z,14.40
2022-10-26T00:31:58.782Z,14.30
2022-10-26T00:37:55.999Z,14.30
2022-10-26T00:43:51.167Z,14.20
2022-10-26T00:49:47.804Z,14.10
2022-10-26T00:55:45.648Z,14.10
2022-10-26T01:01:44.559Z,14.10
2022-10-26T02:26:40.687Z,13.60
2022-10-26T02:32:37.587Z,13.60
2022-10-26T02:38:33.495Z,13.60
2022-10-26T02:44:30.880Z,13.60
2022-10-26T02:50:29.282Z,13.60
2022-10-26T02:57:10.099Z,13.60
2022-10-26T03:03:08.181Z,13.60
2022-10-26T03:09:01.583Z,13.60
2022-10-26T03:14:54.939Z,13.50
2022-10-26T03:20:49.622Z,13.50
2022-10-26T03:26:42.943Z,13.40
2022-10-26T03:32:36.400Z,13.50
2022-10-26T03:38:31.127Z,13.50
2022-10-26T03:44:24.689Z,13.60
2022-10-26T03:50:19.789Z,13.50
2022-10-26T03:56:14.468Z,13.50
2022-10-26T04:02:07.821Z,13.50
2022-10-26T04:08:03.533Z,13.40
2022-10-26T04:13:59.916Z,13.40
2022-10-26T04:19:53.363Z,13.30
2022-10-26T04:25:47.148Z,13.30
2022-10-26T04:37:42.917Z,13.20
2022-10-26T04:43:36.249Z,13.20
2022-10-26T04:49:30.831Z,13.20
2022-10-26T04:55:24.037Z,13.10
2022-10-26T05:01:17.429Z,13.10
2022-10-26T05:07:12.172Z,13.10
2022-10-26T05:13:05.688Z,13.10
2022-10-26T05:18:58.542Z,13.10
2022-10-26T05:24:53.120Z,13.10
2022-10-26T05:30:47.648Z,13.00
2022-10-26T05:36:42.016Z,13.00
2022-10-26T05:42:36.275Z,13.00
2022-10-26T05:48:29.329Z,13.00
2022-10-26T05:54:22.235Z,13.00
2022-10-26T06:00:35.298Z,13.00
2022-10-26T06:06:41.019Z,12.90
2022-10-26T06:12:38.391Z,12.90
2022-10-26T06:18:42.319Z,12.90
2022-10-26T06:24:43.295Z,12.90
2022-10-26T06:30:51.664Z,12.90
2022-10-26T06:36:51.056Z,12.80
2022-10-26T06:42:44.552Z,12.80
2022-10-26T06:48:48.608Z,12.80
2022-10-26T06:54:52.562Z,12.70
2022-10-26T07:00:48.147Z,12.70
2022-10-26T07:06:41.031Z,12.70
2022-10-26T07:12:36.045Z,12.70
2022-10-26T07:18:28.929Z,12.60
2022-10-26T07:24:22.239Z,12.60
2022-10-26T07:30:17.652Z,12.60
2022-10-26T07:36:10.883Z,12.60
2022-10-26T07:42:03.856Z,12.70
2022-10-26T07:47:58.397Z,12.70
2022-10-26T07:53:51.622Z,12.80
2022-10-26T07:59:44.860Z,12.90
2022-10-26T08:05:39.425Z,13.00
2022-10-26T08:11:32.682Z,13.00
2022-10-26T08:17:26.038Z,13.20
2022-10-26T08:23:20.662Z,13.20
2022-10-26T08:29:13.856Z,13.20
2022-10-26T08:35:07.356Z,13.40
2022-10-26T08:41:07.861Z,13.40
2022-10-26T08:47:07.085Z,13.50
2022-10-26T08:53:05.156Z,13.30
2022-10-26T08:59:02.681Z,13.40
2022-10-26T09:04:59.108Z,13.40
2022-10-26T09:10:59.311Z,13.60
2022-10-26T09:17:03.660Z,13.70
2022-10-26T09:23:03.784Z,14.00
2022-10-26T09:28:58.768Z,14.10
2022-10-26T09:34:56.141Z,14.40
2022-10-26T09:40:57.288Z,14.50
2022-10-26T09:46:58.074Z,14.70
2022-10-26T09:52:52.828Z,15.10
2022-10-26T09:58:49.944Z,15.10
2022-10-26T10:04:48.163Z,15.50
2022-10-26T10:10:55.849Z,15.70
2022-10-26T10:16:54.750Z,16.20
2022-10-26T10:22:59.093Z,16.60
2022-10-26T10:29:00.074Z,17.00
2022-10-26T10:34:56.325Z,17.40
2022-10-26T10:40:54.926Z,17.50
2022-10-26T10:46:49.322Z,18.10
2022-10-26T10:52:43.635Z,18.00
2022-10-26T10:58:46.386Z,18.40
2022-10-26T11:04:58.394Z,18.80
2022-10-26T11:10:54.978Z,18.80
2022-10-26T11:16:52.965Z,19.10
2022-10-26T11:23:06.473Z,19.20
2022-10-26T11:29:03.978Z,19.40
2022-10-26T11:35:01.751Z,19.20
2022-10-26T11:41:02.339Z,19.90
2022-10-26T11:46:57.820Z,20.00
2022-10-26T11:52:56.810Z,19.80
2022-10-26T11:58:51.858Z,20.00
2022-10-26T12:04:48.626Z,19.90
2022-10-26T12:10:44.393Z,20.20
2022-10-26T12:16:49.799Z,20.30
2022-10-26T12:22:44.024Z,20.20
2022-10-26T12:28:43.041Z,20.90
2022-10-26T12:35:00.661Z,20.90
2022-10-26T12:41:10.994Z,20.90
2022-10-26T12:47:04.792Z,20.90
2022-10-26T12:53:00.199Z,21.40
2022-10-26T12:59:15.723Z,21.50
2022-10-26T13:05:35.979Z,21.80
2022-10-26T13:11:33.492Z,21.70
2022-10-26T13:17:28.971Z,21.60
2022-10-26T13:23:27.459Z,21.30
2022-10-26T13:29:31.766Z,21.40
2022-10-26T13:35:26.465Z,21.10
2022-10-26T13:41:28.642Z,21.50
2022-10-26T13:47:30.091Z,21.70
2022-10-26T13:53:27.771Z,21.20
2022-10-26T13:59:21.276Z,21.10
2022-10-26T14:05:18.379Z,21.20
2022-10-26T14:11:15.587Z,21.10
2022-10-26T14:17:08.940Z,20.90
2022-10-26T14:23:03.551Z,20.90
2022-10-26T14:28:58.888Z,20.70
2022-10-26T14:34:52.150Z,20.30
2022-10-26T14:40:47.207Z,20.20
2022-10-26T14:46:44.809Z,20.20
2022-10-26T14:52:38.139Z,20.30
2022-10-26T14:58:34.436Z,20.30
2022-10-26T15:04:34.218Z,20.30
2022-10-26T15:10:49.540Z,20.30
2022-10-26T15:16:53.635Z,20.20
2022-10-26T15:22:51.896Z,19.90
2022-10-26T15:28:45.447Z,19.90
2022-10-26T15:34:40.294Z,19.70
2022-10-26T15:40:33.811Z,19.70
2022-10-26T15:46:30.428Z,19.50
2022-10-26T15:52:25.100Z,19.30
2022-10-26T15:58:18.809Z,19.30
2022-10-26T16:04:14.640Z,19.10
2022-10-26T16:10:14.310Z,19.00
2022-10-26T16:16:13.533Z,18.90
2022-10-26T16:22:06.945Z,18.80
2022-10-26T16:28:01.887Z,18.60
2022-10-26T16:33:55.532Z,18.60
2022-10-26T16:39:50.009Z,18.50
2022-10-26T16:45:44.635Z,18.30
2022-10-26T16:51:37.505Z,18.30
2022-10-26T16:57:30.491Z,18.00
2022-10-26T17:03:25.066Z,17.90
2022-10-26T17:09:18.365Z,17.90
2022-10-26T17:15:15.914Z,17.70
2022-10-26T17:21:15.018Z,17.60
2022-10-26T17:27:08.278Z,17.50
2022-10-26T17:33:01.532Z,17.50
2022-10-26T17:38:57.820Z,17.30
2022-10-26T17:44:51.055Z,17.30
2022-10-26T17:50:43.924Z,17.40
2022-10-26T17:56:39.195Z,17.40
2022-10-26T18:02:35.904Z,17.20
2022-10-26T18:08:32.088Z,16.90
2022-10-26T18:14:26.886Z,16.90
2022-10-26T18:20:20.917Z,16.80
2022-10-26T18:26:16.625Z,17.00
2022-10-26T18:32:11.271Z,16.90
2022-10-26T18:38:04.849Z,16.80
2022-10-26T18:44:00.246Z,16.90
2022-10-26T18:49:56.539Z,16.80
2022-10-26T18:55:49.853Z,16.90
2022-10-26T19:01:43.248Z,16.90
2022-10-26T19:07:39.486Z,16.90
2022-10-26T19:13:33.041Z,17.00
2022-10-26T19:19:26.589Z,17.00
2022-10-26T19:25:21.348Z,17.10
2022-10-26T19:31:16.124Z,17.20
2022-10-26T19:37:09.467Z,17.20
2022-10-26T19:43:04.109Z,17.30
2022-10-26T19:48:59.772Z,17.30
2022-10-26T19:54:53.248Z,17.30
2022-10-26T20:00:48.119Z,17.20
2022-10-26T20:06:41.515Z,17.20
2022-10-26T20:12:34.371Z,17.10
2022-10-26T20:18:29.818Z,16.80
2022-10-26T20:24:23.032Z,16.70
2022-10-26T20:30:16.544Z,16.60
2022-10-26T20:36:10.980Z,16.60
2022-10-26T20:42:05.360Z,16.80
2022-10-26T20:47:59.938Z,16.80
2022-10-26T20:54:02.794Z,16.70
2022-10-26T20:59:59.736Z,16.60
2022-10-26T21:05:53.118Z,16.40
2022-10-26T21:11:47.989Z,16.30
2022-10-26T21:17:41.545Z,16.20
2022-10-26T21:23:36.148Z,16.50
2022-10-26T21:29:30.724Z,16.50
2022-10-26T21:35:23.974Z,16.40
2022-10-26T21:41:18.994Z,16.40
2022-10-26T21:47:13.924Z,16.50
2022-10-26T21:53:07.152Z,16.60
2022-10-26T21:59:01.720Z,16.60
